Arthur City, TX

12:07 AM CDT on July 26, 2014 (GMT -0500)
Stamper Municipal (KHHW) Elev 571 ft | 34.03 °N, 95.54 °W | Change Station

Current weather conditions updated 12 minutes ago

Clear
Clear
80 °F
Feels Like 80 °F
N
4
Wind Variable Wind from South

Today is forecast to be Warmer than yesterday. Thunderstorms developing late tomorrow night.

Today
High -- | Low -- °F
--% Chance of Precip.
Yesterday
High -- | Low -- °F
Precip. -- in
6:29 AM 8:26 PM
Waning Crescent, 0% visible
Pressure 29.96 in
Visibility 10.0 miles
Clouds Clear
Dew Point 74 °F
Humidity 81%
Rainfall 0.00 in
Snow Depth Not available.
UV 0 out of 12
Pollen 4.40 out of 12
Air Quality Not available.
Flu Activity Not available.
METAR KHHW 260455Z AUTO 18003KT 10SM CLR 27/23 A2996 RMK AO2 T02660231

More Conditions Fewer Conditions

Pressure 29.96 in
Visibility 10.0 miles
Clouds Clear
Dew Point 74 °F
Humidity 81%
Rainfall 0.00 in
Snow Depth Not available.
UV 0 out of 12
Pollen 4.40 out of 12
Air Quality Not available.
Flu Activity Not available.
METAR KHHW 260455Z AUTO 18003KT 10SM CLR 27/23 A2996 RMK AO2 T02660231

More Conditions Fewer Conditions

10-Day Weather Forecast

Almanac

Astronomy

Jul. 26, 2014 Rise Set
Actual Time 6:29 AM CDT 8:26 PM CDT
Civil Twilight 6:01 AM CDT 8:54 PM CDT
Nautical Twilight 5:27 AM CDT 9:28 PM CDT
Astronomical Twilight 4:51 AM CDT 10:04 PM CDT
Moon 6:19 AM CDT 8:06 PM CDT
Length of Visible Light 14h 53m
Length of Day
13h 57m
Tomorrow will be 1m 24s shorter.
Waning Crescent, 0% of the Moon is Illuminated
Today
Waning Crescent
Jul 26
New
Aug 3
First Quarter
Aug 10
Full
Aug 17
Last Quarter

Today's Extremes

State Highs State Lows

Community

WunderPhotos

Upload Photos

1,737,521 photos uploaded!

Nearby

Snow Depth

Station Depth Elevation
No new snow has been reported.

Earthquake Activity

City Distance Mag. Time & Date
Guthrie, Oklahoma 175 miles 2.9 4:45 PM CDT
2014-07-21
Minimum magnitude displayed is 2.5.

Coastal Water Temperatures

Place Temperature
No Stations Reporting

Nearby Weather Stations

Station Location Temp. Heat Index Dew Point Humidity Wind Precip. Elev Updated Type
West Red River County, Detroit, TX 77.5 °F 79 °F 75 °F 91% South  at  0.0 mph 0.00 in / hr 461 ft 11:06 PM MDT Normal

Show More Stations Show Fewer Stations